sensor_id;sensor_type;location;lat;lon;timestamp;pressure;altitude;pressure_sealevel;temperature;humidity
33075;BME280;19433;51.292;6.868;2023-03-14T00:02:02;97952.66;;;9.84;97.13
33075;BME280;19433;51.292;6.868;2023-03-14T00:04:27;97935.84;;;9.86;96.95
33075;BME280;19433;51.292;6.868;2023-03-14T00:06:52;97926.88;;;10.01;96.07
33075;BME280;19433;51.292;6.868;2023-03-14T00:09:18;97924.47;;;10.09;95.79
33075;BME280;19433;51.292;6.868;2023-03-14T00:11:43;97914.81;;;10.07;95.84
33075;BME280;19433;51.292;6.868;2023-03-14T00:14:08;97904.56;;;10.02;96.50
33075;BME280;19433;51.292;6.868;2023-03-14T00:16:34;97902.84;;;9.96;97.67
33075;BME280;19433;51.292;6.868;2023-03-14T00:18:59;97895.53;;;9.80;97.32
33075;BME280;19433;51.292;6.868;2023-03-14T00:21:25;97899.19;;;9.85;97.34
33075;BME280;19433;51.292;6.868;2023-03-14T00:23:51;97910.19;;;9.85;97.09
33075;BME280;19433;51.292;6.868;2023-03-14T00:26:18;97920.91;;;9.82;97.44
33075;BME280;19433;51.292;6.868;2023-03-14T00:28:44;97913.00;;;9.91;96.58
33075;BME280;19433;51.292;6.868;2023-03-14T00:31:12;97928.22;;;9.98;96.10
33075;BME280;19433;51.292;6.868;2023-03-14T00:33:37;97935.47;;;10.04;95.86
33075;BME280;19433;51.292;6.868;2023-03-14T00:36:05;97940.31;;;10.19;94.22
33075;BME280;19433;51.292;6.868;2023-03-14T00:38:32;97974.47;;;10.18;96.12
33075;BME280;19433;51.292;6.868;2023-03-14T00:40:58;97977.72;;;9.83;100.00
33075;BME280;19433;51.292;6.868;2023-03-14T00:43:23;97993.16;;;9.30;100.00
33075;BME280;19433;51.292;6.868;2023-03-14T00:45:49;98021.84;;;8.74;100.00
33075;BME280;19433;51.292;6.868;2023-03-14T00:48:15;98017.47;;;8.39;100.00
33075;BME280;19433;51.292;6.868;2023-03-14T00:50:41;97984.69;;;8.21;100.00
33075;BME280;19433;51.292;6.868;2023-03-14T00:53:06;97989.81;;;8.01;100.00
33075;BME280;19433;51.292;6.868;2023-03-14T00:55:31;97983.16;;;7.97;100.00
33075;BME280;19433;51.292;6.868;2023-03-14T00:57:56;97979.00;;;7.94;100.00
33075;BME280;19433;51.292;6.868;2023-03-14T01:00:22;97975.66;;;7.92;100.00
33075;BME280;19433;51.292;6.868;2023-03-14T01:02:48;97962.66;;;7.88;100.00
33075;BME280;19433;51.292;6.868;2023-03-14T01:05:14;97975.31;;;7.89;100.00
33075;BME280;19433;51.292;6.868;2023-03-14T01:07:39;97974.38;;;7.83;100.00
33075;BME280;19433;51.292;6.868;2023-03-14T01:10:05;97964.81;;;7.86;100.00
33075;BME280;19433;51.292;6.868;2023-03-14T01:12:32;97957.91;;;7.83;100.00
33075;BME280;19433;51.292;6.868;2023-03-14T01:14:57;97961.06;;;7.75;100.00
33075;BME280;19433;51.292;6.868;2023-03-14T01:17:23;97958.81;;;7.72;100.00
33075;BME280;19433;51.292;6.868;2023-03-14T01:19:48;97968.88;;;7.66;100.00
33075;BME280;19433;51.292;6.868;2023-03-14T01:22:14;97959.13;;;7.59;100.00
33075;BME280;19433;51.292;6.868;2023-03-14T01:24:39;97975.44;;;7.65;100.00
33075;BME280;19433;51.292;6.868;2023-03-14T01:27:05;97969.88;;;7.60;100.00
33075;BME280;19433;51.292;6.868;2023-03-14T01:29:30;97968.53;;;7.63;100.00
33075;BME280;19433;51.292;6.868;2023-03-14T01:31:55;97961.66;;;7.49;100.00
33075;BME280;19433;51.292;6.868;2023-03-14T01:34:22;97943.38;;;7.54;100.00
33075;BME280;19433;51.292;6.868;2023-03-14T01:36:47;97941.69;;;7.53;100.00
33075;BME280;19433;51.292;6.868;2023-03-14T01:39:12;97932.44;;;7.43;100.00
33075;BME280;19433;51.292;6.868;2023-03-14T01:41:39;97943.69;;;7.41;100.00
33075;BME280;19433;51.292;6.868;2023-03-14T01:44:05;97945.59;;;7.40;100.00
33075;BME280;19433;51.292;6.868;2023-03-14T01:49:22;97946.91;;;7.38;100.00
33075;BME280;19433;51.292;6.868;2023-03-14T01:54:36;97939.59;;;7.44;100.00
33075;BME280;19433;51.292;6.868;2023-03-14T01:57:34;97939.97;;;7.47;100.00
33075;BME280;19433;51.292;6.868;2023-03-14T02:00:07;97938.28;;;7.46;100.00
33075;BME280;19433;51.292;6.868;2023-03-14T02:02:37;97934.19;;;7.49;100.00
33075;BME280;19433;51.292;6.868;2023-03-14T02:05:04;97924.13;;;7.54;100.00
33075;BME280;19433;51.292;6.868;2023-03-14T02:07:37;97928.16;;;7.63;100.00
33075;BME280;19433;51.292;6.868;2023-03-14T02:10:06;97919.41;;;7.66;100.00
33075;BME280;19433;51.292;6.868;2023-03-14T02:12:33;97925.00;;;7.71;100.00
33075;BME280;19433;51.292;6.868;2023-03-14T02:14:58;97922.25;;;7.71;100.00
33075;BME280;19433;51.292;6.868;2023-03-14T02:17:24;97915.59;;;7.84;100.00
33075;BME280;19433;51.292;6.868;2023-03-14T02:22:52;97919.50;;;7.71;100.00
33075;BME280;19433;51.292;6.868;2023-03-14T02:28:01;97925.72;;;7.67;100.00
33075;BME280;19433;51.292;6.868;2023-03-14T02:30:29;97936.22;;;7.70;100.00
33075;BME280;19433;51.292;6.868;2023-03-14T02:33:08;97937.31;;;7.86;100.00
33075;BME280;19433;51.292;6.868;2023-03-14T02:35:45;97933.16;;;7.83;100.00
33075;BME280;19433;51.292;6.868;2023-03-14T02:38:24;97931.91;;;7.74;100.00
33075;BME280;19433;51.292;6.868;2023-03-14T02:40:51;97937.41;;;7.74;100.00
33075;BME280;19433;51.292;6.868;2023-03-14T02:43:16;97941.34;;;7.78;100.00
33075;BME280;19433;51.292;6.868;2023-03-14T02:45:46;97936.09;;;7.76;100.00
33075;BME280;19433;51.292;6.868;2023-03-14T02:50:48;97920.59;;;7.87;100.00
33075;BME280;19433;51.292;6.868;2023-03-14T02:53:17;97918.81;;;7.81;100.00
33075;BME280;19433;51.292;6.868;2023-03-14T02:55:45;97923.50;;;7.81;100.00
33075;BME280;19433;51.292;6.868;2023-03-14T02:58:11;97918.28;;;7.79;100.00
33075;BME280;19433;51.292;6.868;2023-03-14T03:00:36;97917.69;;;7.77;100.00
33075;BME280;19433;51.292;6.868;2023-03-14T03:03:02;97913.56;;;7.80;100.00
33075;BME280;19433;51.292;6.868;2023-03-14T03:05:27;97908.34;;;7.78;100.00
33075;BME280;19433;51.292;6.868;2023-03-14T03:07:53;97911.34;;;7.76;100.00
33075;BME280;19433;51.292;6.868;2023-03-14T03:10:18;97917.09;;;7.75;100.00
33075;BME280;19433;51.292;6.868;2023-03-14T03:12:44;97901.59;;;7.69;100.00
33075;BME280;19433;51.292;6.868;2023-03-14T03:15:09;97895.69;;;7.77;100.00
33075;BME280;19433;51.292;6.868;2023-03-14T03:17:35;97896.78;;;7.76;100.00
33075;BME280;19433;51.292;6.868;2023-03-14T03:20:00;97883.28;;;7.74;100.00
33075;BME280;19433;51.292;6.868;2023-03-14T03:22:26;97889.28;;;7.71;100.00
33075;BME280;19433;51.292;6.868;2023-03-14T03:24:52;97884.34;;;7.73;100.00
33075;BME280;19433;51.292;6.868;2023-03-14T03:27:17;97884.84;;;7.70;100.00
33075;BME280;19433;51.292;6.868;2023-03-14T03:29:42;97886.03;;;7.74;100.00
33075;BME280;19433;51.292;6.868;2023-03-14T03:32:08;97890.34;;;7.87;100.00
33075;BME280;19433;51.292;6.868;2023-03-14T03:34:33;97883.84;;;7.60;100.00
33075;BME280;19433;51.292;6.868;2023-03-14T03:36:58;97890.91;;;7.56;100.00
33075;BME280;19433;51.292;6.868;2023-03-14T03:39:23;97896.41;;;7.56;100.00
33075;BME280;19433;51.292;6.868;2023-03-14T03:41:49;97893.41;;;7.57;100.00
33075;BME280;19433;51.292;6.868;2023-03-14T03:44:14;97889.50;;;7.53;100.00
33075;BME280;19433;51.292;6.868;2023-03-14T03:46:39;97885.59;;;7.66;100.00
33075;BME280;19433;51.292;6.868;2023-03-14T03:49:04;97885.84;;;7.48;100.00
33075;BME280;19433;51.292;6.868;2023-03-14T03:51:30;97872.00;;;7.43;100.00
33075;BME280;19433;51.292;6.868;2023-03-14T03:53:56;97882.41;;;7.40;100.00
33075;BME280;19433;51.292;6.868;2023-03-14T03:56:22;97891.25;;;7.43;100.00
33075;BME280;19433;51.292;6.868;2023-03-14T03:58:47;97888.59;;;7.48;100.00
33075;BME280;19433;51.292;6.868;2023-03-14T04:01:12;97874.75;;;7.43;100.00
33075;BME280;19433;51.292;6.868;2023-03-14T04:03:38;97881.47;;;7.35;100.00
33075;BME280;19433;51.292;6.868;2023-03-14T04:06:06;97874.66;;;7.37;100.00
33075;BME280;19433;51.292;6.868;2023-03-14T04:08:32;97873.59;;;7.38;100.00
33075;BME280;19433;51.292;6.868;2023-03-14T04:10:58;97867.84;;;7.40;100.00
33075;BME280;19433;51.292;6.868;2023-03-14T04:13:25;97858.44;;;7.36;100.00
33075;BME280;19433;51.292;6.868;2023-03-14T04:15:51;97865.44;;;7.44;100.00
33075;BME280;19433;51.292;6.868;2023-03-14T04:18:17;97853.63;;;7.43;100.00
33075;BME280;19433;51.292;6.868;2023-03-14T04:20:42;97849.56;;;7.46;100.00
33075;BME280;19433;51.292;6.868;2023-03-14T04:23:07;97854.53;;;7.49;100.00
33075;BME280;19433;51.292;6.868;2023-03-14T04:25:33;97856.72;;;7.47;100.00
33075;BME280;19433;51.292;6.868;2023-03-14T04:27:58;97859.47;;;7.47;100.00
33075;BME280;19433;51.292;6.868;2023-03-14T04:30:23;97874.28;;;7.46;100.00
33075;BME280;19433;51.292;6.868;2023-03-14T04:32:49;97872.44;;;7.51;100.00
33075;BME280;19433;51.292;6.868;2023-03-14T04:35:14;97852.06;;;7.47;100.00
33075;BME280;19433;51.292;6.868;2023-03-14T04:37:39;97864.50;;;7.38;100.00
33075;BME280;19433;51.292;6.868;2023-03-14T04:40:07;97857.25;;;7.15;100.00
33075;BME280;19433;51.292;6.868;2023-03-14T04:42:33;97857.31;;;7.20;100.00
33075;BME280;19433;51.292;6.868;2023-03-14T04:45:01;97842.81;;;7.08;100.00
33075;BME280;19433;51.292;6.868;2023-03-14T04:47:26;97849.00;;;7.15;100.00
33075;BME280;19433;51.292;6.868;2023-03-14T04:49:52;97857.91;;;7.22;100.00
33075;BME280;19433;51.292;6.868;2023-03-14T04:52:17;97859.16;;;7.15;100.00
33075;BME280;19433;51.292;6.868;2023-03-14T04:54:42;97831.25;;;7.06;100.00
33075;BME280;19433;51.292;6.868;2023-03-14T04:57:08;97831.94;;;7.13;100.00
33075;BME280;19433;51.292;6.868;2023-03-14T04:59:33;97797.75;;;7.21;100.00
33075;BME280;19433;51.292;6.868;2023-03-14T05:01:58;97805.94;;;7.32;100.00
33075;BME280;19433;51.292;6.868;2023-03-14T05:04:24;97807.50;;;7.28;100.00
33075;BME280;19433;51.292;6.868;2023-03-14T05:06:49;97805.34;;;7.30;100.00
33075;BME280;19433;51.292;6.868;2023-03-14T05:09:14;97781.47;;;7.48;100.00
33075;BME280;19433;51.292;6.868;2023-03-14T05:11:40;97785.94;;;7.54;100.00
33075;BME280;19433;51.292;6.868;2023-03-14T05:14:05;97785.09;;;7.36;100.00
33075;BME280;19433;51.292;6.868;2023-03-14T05:16:30;97797.09;;;7.30;100.00
33075;BME280;19433;51.292;6.868;2023-03-14T05:18:56;97781.72;;;7.46;100.00
33075;BME280;19433;51.292;6.868;2023-03-14T05:21:21;97777.19;;;7.57;100.00
33075;BME280;19433;51.292;6.868;2023-03-14T05:23:46;97778.38;;;7.61;100.00
33075;BME280;19433;51.292;6.868;2023-03-14T05:26:12;97777.09;;;7.52;100.00
33075;BME280;19433;51.292;6.868;2023-03-14T05:28:37;97770.28;;;7.37;100.00
33075;BME280;19433;51.292;6.868;2023-03-14T05:31:06;97779.03;;;7.34;100.00
33075;BME280;19433;51.292;6.868;2023-03-14T05:33:32;97780.94;;;7.34;100.00
33075;BME280;19433;51.292;6.868;2023-03-14T05:35:58;97772.38;;;7.30;100.00
33075;BME280;19433;51.292;6.868;2023-03-14T05:38:23;97773.47;;;7.29;100.00
33075;BME280;19433;51.292;6.868;2023-03-14T05:40:48;97767.53;;;7.37;100.00
33075;BME280;19433;51.292;6.868;2023-03-14T05:43:13;97759.81;;;7.34;100.00
33075;BME280;19433;51.292;6.868;2023-03-14T05:45:40;97767.97;;;7.29;100.00
33075;BME280;19433;51.292;6.868;2023-03-14T05:48:05;97769.66;;;7.30;100.00
33075;BME280;19433;51.292;6.868;2023-03-14T05:50:31;97762.72;;;7.28;100.00
33075;BME280;19433;51.292;6.868;2023-03-14T05:52:56;97770.22;;;7.32;100.00
33075;BME280;19433;51.292;6.868;2023-03-14T05:55:21;97769.06;;;7.28;100.00
33075;BME280;19433;51.292;6.868;2023-03-14T05:57:46;97764.88;;;7.26;100.00
33075;BME280;19433;51.292;6.868;2023-03-14T06:00:15;97763.56;;;7.28;100.00
33075;BME280;19433;51.292;6.868;2023-03-14T06:02:41;97763.31;;;7.30;100.00
33075;BME280;19433;51.292;6.868;2023-03-14T06:05:07;97775.88;;;7.43;100.00
33075;BME280;19433;51.292;6.868;2023-03-14T06:07:32;97760.38;;;7.36;100.00
33075;BME280;19433;51.292;6.868;2023-03-14T06:09:57;97767.28;;;7.39;100.00
33075;BME280;19433;51.292;6.868;2023-03-14T06:12:23;97761.81;;;7.39;100.00
33075;BME280;19433;51.292;6.868;2023-03-14T06:14:49;97766.22;;;7.40;100.00
33075;BME280;19433;51.292;6.868;2023-03-14T06:17:14;97765.53;;;7.50;100.00
33075;BME280;19433;51.292;6.868;2023-03-14T06:19:39;97758.97;;;7.51;100.00
33075;BME280;19433;51.292;6.868;2023-03-14T06:22:05;97770.03;;;7.56;100.00
33075;BME280;19433;51.292;6.868;2023-03-14T06:24:30;97769.53;;;7.59;100.00
33075;BME280;19433;51.292;6.868;2023-03-14T06:26:55;97782.19;;;7.60;100.00
33075;BME280;19433;51.292;6.868;2023-03-14T06:29:20;97773.38;;;7.58;100.00
33075;BME280;19433;51.292;6.868;2023-03-14T06:31:46;97761.28;;;7.59;100.00
33075;BME280;19433;51.292;6.868;2023-03-14T06:34:11;97774.84;;;7.65;100.00
33075;BME280;19433;51.292;6.868;2023-03-14T06:36:36;97777.34;;;7.67;100.00
33075;BME280;19433;51.292;6.868;2023-03-14T06:39:02;97767.03;;;7.74;100.00
33075;BME280;19433;51.292;6.868;2023-03-14T06:41:28;97780.25;;;7.77;100.00
33075;BME280;19433;51.292;6.868;2023-03-14T06:43:54;97770.94;;;7.78;100.00
33075;BME280;19433;51.292;6.868;2023-03-14T06:46:19;97765.09;;;7.74;100.00
33075;BME280;19433;51.292;6.868;2023-03-14T06:48:45;97779.69;;;7.75;100.00
33075;BME280;19433;51.292;6.868;2023-03-14T06:51:10;97777.78;;;7.75;100.00
33075;BME280;19433;51.292;6.868;2023-03-14T06:53:35;97784.34;;;7.74;100.00
33075;BME280;19433;51.292;6.868;2023-03-14T06:56:01;97771.19;;;7.76;100.00
33075;BME280;19433;51.292;6.868;2023-03-14T06:58:26;97769.28;;;7.77;100.00
33075;BME280;19433;51.292;6.868;2023-03-14T07:00:52;97775.34;;;7.79;100.00
33075;BME280;19433;51.292;6.868;2023-03-14T07:03:18;97780.31;;;7.82;100.00
33075;BME280;19433;51.292;6.868;2023-03-14T07:05:43;97781.94;;;7.78;100.00
33075;BME280;19433;51.292;6.868;2023-03-14T07:08:09;97780.06;;;7.84;100.00
33075;BME280;19433;51.292;6.868;2023-03-14T07:10:34;97782.31;;;7.87;100.00
33075;BME280;19433;51.292;6.868;2023-03-14T07:12:59;97781.22;;;7.88;100.00
33075;BME280;19433;51.292;6.868;2023-03-14T07:15:25;97791.47;;;7.92;100.00
33075;BME280;19433;51.292;6.868;2023-03-14T07:17:50;97789.88;;;7.96;100.00
33075;BME280;19433;51.292;6.868;2023-03-14T07:20:17;97795.78;;;8.05;100.00
33075;BME280;19433;51.292;6.868;2023-03-14T07:22:42;97787.03;;;8.08;100.00
33075;BME280;19433;51.292;6.868;2023-03-14T07:25:08;97796.53;;;8.00;100.00
33075;BME280;19433;51.292;6.868;2023-03-14T07:27:36;97812.44;;;7.98;100.00
33075;BME280;19433;51.292;6.868;2023-03-14T07:30:02;97805.88;;;7.99;100.00
33075;BME280;19433;51.292;6.868;2023-03-14T07:32:27;97808.94;;;8.03;100.00
33075;BME280;19433;51.292;6.868;2023-03-14T07:34:52;97802.44;;;8.09;100.00
33075;BME280;19433;51.292;6.868;2023-03-14T07:37:18;97800.44;;;8.26;100.00
33075;BME280;19433;51.292;6.868;2023-03-14T07:39:43;97803.75;;;8.45;100.00
33075;BME280;19433;51.292;6.868;2023-03-14T07:42:08;97808.19;;;8.46;100.00
33075;BME280;19433;51.292;6.868;2023-03-14T07:44:34;97813.31;;;8.37;100.00
33075;BME280;19433;51.292;6.868;2023-03-14T07:46:59;97808.09;;;8.41;100.00
33075;BME280;19433;51.292;6.868;2023-03-14T07:49:24;97802.66;;;8.46;100.00
33075;BME280;19433;51.292;6.868;2023-03-14T07:51:50;97805.75;;;8.50;100.00
33075;BME280;19433;51.292;6.868;2023-03-14T07:54:15;97811.44;;;8.43;100.00
33075;BME280;19433;51.292;6.868;2023-03-14T07:56:41;97815.81;;;8.39;100.00
33075;BME280;19433;51.292;6.868;2023-03-14T07:59:06;97818.78;;;8.59;100.00
33075;BME280;19433;51.292;6.868;2023-03-14T08:01:32;97816.91;;;8.87;100.00
33075;BME280;19433;51.292;6.868;2023-03-14T08:03:57;97816.03;;;9.08;100.00
33075;BME280;19433;51.292;6.868;2023-03-14T08:06:23;97825.34;;;9.29;100.00
33075;BME280;19433;51.292;6.868;2023-03-14T08:08:48;97826.91;;;9.51;100.00
33075;BME280;19433;51.292;6.868;2023-03-14T08:11:14;97815.91;;;9.51;100.00
33075;BME280;19433;51.292;6.868;2023-03-14T08:13:39;97826.78;;;9.36;100.00
33075;BME280;19433;51.292;6.868;2023-03-14T08:16:05;97829.50;;;9.31;100.00
33075;BME280;19433;51.292;6.868;2023-03-14T08:18:31;97818.06;;;9.17;100.00
33075;BME280;19433;51.292;6.868;2023-03-14T08:20:56;97830.81;;;9.24;100.00
33075;BME280;19433;51.292;6.868;2023-03-14T08:23:21;97830.75;;;9.18;100.00
33075;BME280;19433;51.292;6.868;2023-03-14T08:25:51;97827.72;;;9.20;100.00
33075;BME280;19433;51.292;6.868;2023-03-14T08:28:17;97818.44;;;9.26;100.00
33075;BME280;19433;51.292;6.868;2023-03-14T08:30:42;97820.94;;;9.28;100.00
33075;BME280;19433;51.292;6.868;2023-03-14T08:33:07;97822.47;;;9.18;100.00
33075;BME280;19433;51.292;6.868;2023-03-14T08:35:33;97825.88;;;9.26;100.00
33075;BME280;19433;51.292;6.868;2023-03-14T08:37:58;97829.03;;;9.39;100.00
33075;BME280;19433;51.292;6.868;2023-03-14T08:40:23;97826.44;;;9.60;100.00
33075;BME280;19433;51.292;6.868;2023-03-14T08:42:48;97826.19;;;9.61;100.00
33075;BME280;19433;51.292;6.868;2023-03-14T08:45:15;97825.09;;;9.62;100.00
33075;BME280;19433;51.292;6.868;2023-03-14T08:47:42;97828.00;;;9.50;100.00
33075;BME280;19433;51.292;6.868;2023-03-14T08:50:08;97836.66;;;9.32;100.00
33075;BME280;19433;51.292;6.868;2023-03-14T08:52:34;97840.09;;;9.17;100.00
33075;BME280;19433;51.292;6.868;2023-03-14T08:54:59;97845.75;;;9.06;100.00
33075;BME280;19433;51.292;6.868;2023-03-14T08:57:25;97847.84;;;8.94;100.00
33075;BME280;19433;51.292;6.868;2023-03-14T08:59:56;97855.72;;;8.85;100.00
33075;BME280;19433;51.292;6.868;2023-03-14T09:02:22;97852.66;;;8.81;100.00
33075;BME280;19433;51.292;6.868;2023-03-14T09:04:50;97868.13;;;8.88;100.00
33075;BME280;19433;51.292;6.868;2023-03-14T09:07:15;97867.63;;;8.91;100.00
33075;BME280;19433;51.292;6.868;2023-03-14T09:09:40;97876.53;;;8.98;100.00
33075;BME280;19433;51.292;6.868;2023-03-14T09:12:06;97885.22;;;8.90;100.00
33075;BME280;19433;51.292;6.868;2023-03-14T09:14:31;97886.88;;;8.91;100.00
33075;BME280;19433;51.292;6.868;2023-03-14T09:16:57;97891.25;;;8.87;100.00
33075;BME280;19433;51.292;6.868;2023-03-14T09:19:22;97896.25;;;8.90;100.00
33075;BME280;19433;51.292;6.868;2023-03-14T09:21:48;97907.63;;;8.76;100.00
33075;BME280;19433;51.292;6.868;2023-03-14T09:24:13;97930.88;;;8.64;100.00
33075;BME280;19433;51.292;6.868;2023-03-14T09:26:39;97972.66;;;8.61;100.00
33075;BME280;19433;51.292;6.868;2023-03-14T09:29:04;97998.81;;;8.30;100.00
33075;BME280;19433;51.292;6.868;2023-03-14T09:31:29;97997.97;;;7.96;100.00
33075;BME280;19433;51.292;6.868;2023-03-14T09:33:55;97992.81;;;7.99;100.00
33075;BME280;19433;51.292;6.868;2023-03-14T09:36:20;98017.91;;;8.03;100.00
33075;BME280;19433;51.292;6.868;2023-03-14T09:38:46;98034.38;;;7.86;100.00
33075;BME280;19433;51.292;6.868;2023-03-14T09:41:35;98051.22;;;7.61;100.00
33075;BME280;19433;51.292;6.868;2023-03-14T09:44:08;98061.75;;;7.53;100.00
33075;BME280;19433;51.292;6.868;2023-03-14T09:46:37;98072.38;;;7.49;100.00
33075;BME280;19433;51.292;6.868;2023-03-14T09:49:10;98083.00;;;7.57;100.00
33075;BME280;19433;51.292;6.868;2023-03-14T09:51:36;98088.69;;;7.67;100.00
33075;BME280;19433;51.292;6.868;2023-03-14T09:54:02;98104.59;;;7.65;100.00
33075;BME280;19433;51.292;6.868;2023-03-14T09:56:32;98111.88;;;7.71;100.00
33075;BME280;19433;51.292;6.868;2023-03-14T09:59:03;98124.66;;;7.66;100.00
33075;BME280;19433;51.292;6.868;2023-03-14T10:01:32;98125.66;;;7.60;100.00
33075;BME280;19433;51.292;6.868;2023-03-14T10:04:10;98118.66;;;7.29;100.00
33075;BME280;19433;51.292;6.868;2023-03-14T10:06:38;98128.44;;;7.25;100.00
33075;BME280;19433;51.292;6.868;2023-03-14T10:09:04;98137.66;;;7.30;100.00
33075;BME280;19433;51.292;6.868;2023-03-14T10:11:30;98151.06;;;7.67;100.00
33075;BME280;19433;51.292;6.868;2023-03-14T10:14:08;98157.41;;;7.67;100.00
33075;BME280;19433;51.292;6.868;2023-03-14T10:16:41;98166.13;;;7.76;100.00
33075;BME280;19433;51.292;6.868;2023-03-14T10:19:13;98174.69;;;7.91;100.00
33075;BME280;19433;51.292;6.868;2023-03-14T10:21:40;98179.34;;;7.91;100.00
33075;BME280;19433;51.292;6.868;2023-03-14T10:24:21;98193.81;;;7.86;100.00
33075;BME280;19433;51.292;6.868;2023-03-14T10:27:04;98192.44;;;8.00;100.00
33075;BME280;19433;51.292;6.868;2023-03-14T10:29:31;98199.66;;;7.90;100.00
33075;BME280;19433;51.292;6.868;2023-03-14T10:32:01;98206.78;;;8.02;100.00
33075;BME280;19433;51.292;6.868;2023-03-14T10:34:32;98229.94;;;7.78;100.00
33075;BME280;19433;51.292;6.868;2023-03-14T10:37:06;98241.88;;;7.72;100.00
33075;BME280;19433;51.292;6.868;2023-03-14T10:39:46;98253.97;;;7.48;100.00
33075;BME280;19433;51.292;6.868;2023-03-14T10:42:16;98269.13;;;7.38;100.00
33075;BME280;19433;51.292;6.868;2023-03-14T10:44:44;98284.28;;;7.29;100.00
33075;BME280;19433;51.292;6.868;2023-03-14T10:47:22;98297.06;;;7.35;100.00
33075;BME280;19433;51.292;6.868;2023-03-14T10:49:48;98307.53;;;7.15;100.00
33075;BME280;19433;51.292;6.868;2023-03-14T10:52:24;98313.06;;;6.85;100.00
33075;BME280;19433;51.292;6.868;2023-03-14T10:55:02;98328.78;;;6.78;100.00
33075;BME280;19433;51.292;6.868;2023-03-14T10:57:27;98328.22;;;6.88;100.00
33075;BME280;19433;51.292;6.868;2023-03-14T10:59:55;98345.00;;;7.10;100.00
33075;BME280;19433;51.292;6.868;2023-03-14T11:02:45;98343.13;;;7.22;100.00
33075;BME280;19433;51.292;6.868;2023-03-14T11:05:43;98386.50;;;7.31;100.00
33075;BME280;19433;51.292;6.868;2023-03-14T11:08:35;98386.53;;;7.01;100.00
33075;BME280;19433;51.292;6.868;2023-03-14T11:11:13;98406.41;;;6.49;100.00
33075;BME280;19433;51.292;6.868;2023-03-14T11:13:46;98420.25;;;6.17;100.00
33075;BME280;19433;51.292;6.868;2023-03-14T11:16:19;98429.31;;;6.18;100.00
33075;BME280;19433;51.292;6.868;2023-03-14T11:18:55;98452.31;;;6.17;100.00
33075;BME280;19433;51.292;6.868;2023-03-14T11:21:50;98444.03;;;6.23;100.00
33075;BME280;19433;51.292;6.868;2023-03-14T11:32:13;98479.28;;;8.24;100.00
33075;BME280;19433;51.292;6.868;2023-03-14T11:34:47;98485.97;;;8.28;100.00
33075;BME280;19433;51.292;6.868;2023-03-14T11:37:26;98501.66;;;8.28;100.00
33075;BME280;19433;51.292;6.868;2023-03-14T11:39:59;98506.88;;;7.64;100.00
33075;BME280;19433;51.292;6.868;2023-03-14T11:42:26;98515.00;;;7.59;100.00
33075;BME280;19433;51.292;6.868;2023-03-14T11:44:53;98522.03;;;7.55;100.00
33075;BME280;19433;51.292;6.868;2023-03-14T11:47:25;98526.72;;;7.36;100.00
33075;BME280;19433;51.292;6.868;2023-03-14T11:52:42;98541.97;;;6.59;100.00
33075;BME280;19433;51.292;6.868;2023-03-14T11:55:17;98548.88;;;6.87;100.00
33075;BME280;19433;51.292;6.868;2023-03-14T11:57:45;98556.13;;;6.99;100.00
33075;BME280;19433;51.292;6.868;2023-03-14T12:00:20;98565.72;;;7.45;100.00
33075;BME280;19433;51.292;6.868;2023-03-14T12:08:38;98597.28;;;7.72;100.00
33075;BME280;19433;51.292;6.868;2023-03-14T12:11:10;98605.25;;;7.26;100.00
33075;BME280;19433;51.292;6.868;2023-03-14T12:13:38;98615.81;;;7.04;100.00
33075;BME280;19433;51.292;6.868;2023-03-14T12:16:06;98623.66;;;6.82;100.00
33075;BME280;19433;51.292;6.868;2023-03-14T12:18:36;98636.53;;;6.82;100.00
33075;BME280;19433;51.292;6.868;2023-03-14T12:21:09;98636.38;;;6.77;100.00
33075;BME280;19433;51.292;6.868;2023-03-14T12:23:56;98662.06;;;7.07;100.00
33075;BME280;19433;51.292;6.868;2023-03-14T12:26:25;98669.19;;;8.18;99.38
33075;BME280;19433;51.292;6.868;2023-03-14T12:29:11;98679.00;;;9.95;92.47
33075;BME280;19433;51.292;6.868;2023-03-14T12:31:41;98687.41;;;13.57;80.85
33075;BME280;19433;51.292;6.868;2023-03-14T12:42:51;98707.59;;;10.57;84.17
33075;BME280;19433;51.292;6.868;2023-03-14T12:44:50;98719.97;;;10.27;80.76
33075;BME280;19433;51.292;6.868;2023-03-14T12:49:41;98735.00;;;10.19;84.68
33075;BME280;19433;51.292;6.868;2023-03-14T12:52:15;98746.31;;;9.12;92.39
33075;BME280;19433;51.292;6.868;2023-03-14T12:54:53;98748.97;;;8.18;92.60
33075;BME280;19433;51.292;6.868;2023-03-14T12:57:50;98773.38;;;7.53;96.97
33075;BME280;19433;51.292;6.868;2023-03-14T13:00:22;98787.88;;;7.17;100.00
33075;BME280;19433;51.292;6.868;2023-03-14T13:02:49;98795.94;;;7.36;100.00
33075;BME280;19433;51.292;6.868;2023-03-14T13:05:22;98806.19;;;7.23;100.00
33075;BME280;19433;51.292;6.868;2023-03-14T13:10:24;98814.94;;;7.81;100.00
33075;BME280;19433;51.292;6.868;2023-03-14T13:13:21;98823.91;;;8.13;100.00
33075;BME280;19433;51.292;6.868;2023-03-14T13:15:48;98833.88;;;7.71;100.00
33075;BME280;19433;51.292;6.868;2023-03-14T13:18:40;98835.34;;;7.49;100.00
33075;BME280;19433;51.292;6.868;2023-03-14T13:21:26;98846.94;;;7.51;100.00
33075;BME280;19433;51.292;6.868;2023-03-14T13:23:59;98847.00;;;7.94;99.46
33075;BME280;19433;51.292;6.868;2023-03-14T13:26:43;98857.44;;;8.03;100.00
33075;BME280;19433;51.292;6.868;2023-03-14T13:29:18;98867.34;;;7.86;96.15
33075;BME280;19433;51.292;6.868;2023-03-14T13:31:58;98895.81;;;7.17;96.70
33075;BME280;19433;51.292;6.868;2023-03-14T13:34:33;98910.41;;;6.73;100.00
33075;BME280;19433;51.292;6.868;2023-03-14T13:36:59;98910.19;;;6.23;100.00
33075;BME280;19433;51.292;6.868;2023-03-14T13:39:26;98919.28;;;5.51;100.00
33075;BME280;19433;51.292;6.868;2023-03-14T13:41:54;98910.44;;;5.49;100.00
33075;BME280;19433;51.292;6.868;2023-03-14T13:44:36;98911.47;;;5.42;100.00
33075;BME280;19433;51.292;6.868;2023-03-14T13:47:05;98916.13;;;5.41;100.00
33075;BME280;19433;51.292;6.868;2023-03-14T13:49:32;98917.19;;;5.60;100.00